sensor_id;sensor_type;location;lat;lon;timestamp;pressure;altitude;pressure_sealevel;temperature;humidity
10115;BME280;5097;43.260;27.812;2023-04-19T00:01:51;99582.25;;;10.86;96.24
10115;BME280;5097;43.260;27.812;2023-04-19T00:04:35;99618.06;;;11.46;95.02
10115;BME280;5097;43.260;27.812;2023-04-19T00:07:20;99599.06;;;11.54;95.44
10115;BME280;5097;43.260;27.812;2023-04-19T00:10:06;99604.75;;;11.48;92.66
10115;BME280;5097;43.260;27.812;2023-04-19T00:12:50;99619.06;;;11.58;93.38
10115;BME280;5097;43.260;27.812;2023-04-19T00:15:34;99598.31;;;11.92;92.38
10115;BME280;5097;43.260;27.812;2023-04-19T00:18:20;99572.63;;;11.54;91.77
10115;BME280;5097;43.260;27.812;2023-04-19T00:21:05;99573.50;;;11.13;93.42
10115;BME280;5097;43.260;27.812;2023-04-19T00:23:49;99567.31;;;10.99;95.08
10115;BME280;5097;43.260;27.812;2023-04-19T00:26:33;99571.81;;;11.12;94.74
10115;BME280;5097;43.260;27.812;2023-04-19T00:29:17;99560.94;;;10.89;96.45
10115;BME280;5097;43.260;27.812;2023-04-19T00:32:01;99558.56;;;10.84;97.45
10115;BME280;5097;43.260;27.812;2023-04-19T00:34:48;99590.59;;;10.80;98.53
10115;BME280;5097;43.260;27.812;2023-04-19T00:37:32;99568.13;;;10.58;98.86
10115;BME280;5097;43.260;27.812;2023-04-19T00:40:19;99542.69;;;10.57;99.26
10115;BME280;5097;43.260;27.812;2023-04-19T00:43:03;99538.69;;;10.50;99.36
10115;BME280;5097;43.260;27.812;2023-04-19T00:45:48;99594.91;;;10.81;99.73
10115;BME280;5097;43.260;27.812;2023-04-19T00:48:33;99589.16;;;10.74;100.00
10115;BME280;5097;43.260;27.812;2023-04-19T00:51:20;99593.78;;;10.70;100.00
10115;BME280;5097;43.260;27.812;2023-04-19T00:54:04;99548.63;;;10.46;100.00
10115;BME280;5097;43.260;27.812;2023-04-19T00:56:50;99593.91;;;10.69;100.00
10115;BME280;5097;43.260;27.812;2023-04-19T00:59:34;99543.03;;;10.36;100.00
10115;BME280;5097;43.260;27.812;2023-04-19T01:02:18;99593.59;;;10.73;100.00
10115;BME280;5097;43.260;27.812;2023-04-19T01:05:04;99595.66;;;10.68;100.00
10115;BME280;5097;43.260;27.812;2023-04-19T01:07:51;99594.53;;;10.72;100.00
10115;BME280;5097;43.260;27.812;2023-04-19T01:10:34;99563.72;;;10.59;100.00
10115;BME280;5097;43.260;27.812;2023-04-19T01:13:18;99550.19;;;10.63;100.00
10115;BME280;5097;43.260;27.812;2023-04-19T01:16:04;99590.94;;;10.73;100.00
10115;BME280;5097;43.260;27.812;2023-04-19T01:18:49;99545.78;;;10.49;100.00
10115;BME280;5097;43.260;27.812;2023-04-19T01:21:35;99552.94;;;10.62;100.00
10115;BME280;5097;43.260;27.812;2023-04-19T01:24:22;99587.38;;;10.89;100.00
10115;BME280;5097;43.260;27.812;2023-04-19T01:27:06;99576.94;;;11.00;100.00
10115;BME280;5097;43.260;27.812;2023-04-19T01:29:50;99507.59;;;10.40;100.00
10115;BME280;5097;43.260;27.812;2023-04-19T01:32:34;99542.72;;;10.84;100.00
10115;BME280;5097;43.260;27.812;2023-04-19T01:35:18;99567.34;;;10.85;100.00
10115;BME280;5097;43.260;27.812;2023-04-19T01:38:02;99575.66;;;10.93;100.00
10115;BME280;5097;43.260;27.812;2023-04-19T01:40:48;99569.03;;;10.86;100.00
10115;BME280;5097;43.260;27.812;2023-04-19T01:43:32;99566.75;;;10.94;100.00
10115;BME280;5097;43.260;27.812;2023-04-19T01:46:17;99459.66;;;10.32;100.00
10115;BME280;5097;43.260;27.812;2023-04-19T01:49:01;99562.97;;;10.98;100.00
10115;BME280;5097;43.260;27.812;2023-04-19T01:51:45;99565.44;;;11.01;100.00
10115;BME280;5097;43.260;27.812;2023-04-19T01:54:29;99545.25;;;10.86;100.00
10115;BME280;5097;43.260;27.812;2023-04-19T01:57:14;99553.00;;;10.89;100.00
10115;BME280;5097;43.260;27.812;2023-04-19T02:00:00;99559.41;;;10.85;100.00
10115;BME280;5097;43.260;27.812;2023-04-19T02:02:55;99559.56;;;10.69;100.00
10115;BME280;5097;43.260;27.812;2023-04-19T02:05:40;99552.47;;;10.69;100.00
10115;BME280;5097;43.260;27.812;2023-04-19T02:08:24;99556.97;;;10.67;100.00
10115;BME280;5097;43.260;27.812;2023-04-19T02:11:08;99557.19;;;10.35;100.00
10115;BME280;5097;43.260;27.812;2023-04-19T02:13:53;99539.72;;;10.18;100.00
10115;BME280;5097;43.260;27.812;2023-04-19T02:16:38;99557.16;;;10.21;100.00
10115;BME280;5097;43.260;27.812;2023-04-19T02:19:22;99546.03;;;10.16;100.00
10115;BME280;5097;43.260;27.812;2023-04-19T02:22:05;99546.03;;;10.16;100.00
10115;BME280;5097;43.260;27.812;2023-04-19T02:24:50;99550.44;;;10.15;100.00
10115;BME280;5097;43.260;27.812;2023-04-19T02:27:34;99552.25;;;10.15;100.00
10115;BME280;5097;43.260;27.812;2023-04-19T02:30:19;99545.84;;;10.19;100.00
10115;BME280;5097;43.260;27.812;2023-04-19T02:33:05;99540.53;;;10.04;100.00
10115;BME280;5097;43.260;27.812;2023-04-19T02:35:49;99504.34;;;9.92;100.00
10115;BME280;5097;43.260;27.812;2023-04-19T02:38:33;99543.66;;;10.11;100.00
10115;BME280;5097;43.260;27.812;2023-04-19T02:41:17;99551.78;;;10.22;100.00
10115;BME280;5097;43.260;27.812;2023-04-19T02:44:01;99533.78;;;10.15;100.00
10115;BME280;5097;43.260;27.812;2023-04-19T02:46:48;99538.69;;;10.21;100.00
10115;BME280;5097;43.260;27.812;2023-04-19T02:49:32;99535.56;;;10.29;100.00
10115;BME280;5097;43.260;27.812;2023-04-19T02:52:19;99533.81;;;10.44;100.00
10115;BME280;5097;43.260;27.812;2023-04-19T02:55:04;99539.41;;;10.09;100.00
10115;BME280;5097;43.260;27.812;2023-04-19T02:57:48;99537.75;;;10.07;100.00
10115;BME280;5097;43.260;27.812;2023-04-19T03:00:33;99542.06;;;10.09;100.00
10115;BME280;5097;43.260;27.812;2023-04-19T03:03:24;99538.38;;;10.11;100.00
10115;BME280;5097;43.260;27.812;2023-04-19T03:06:08;99536.03;;;10.06;100.00
10115;BME280;5097;43.260;27.812;2023-04-19T03:08:52;99543.03;;;10.07;100.00
10115;BME280;5097;43.260;27.812;2023-04-19T03:11:36;99549.00;;;10.40;100.00
10115;BME280;5097;43.260;27.812;2023-04-19T03:14:20;99549.09;;;10.38;100.00
10115;BME280;5097;43.260;27.812;2023-04-19T03:17:05;99529.91;;;10.20;100.00
10115;BME280;5097;43.260;27.812;2023-04-19T03:19:52;99535.69;;;10.56;100.00
10115;BME280;5097;43.260;27.812;2023-04-19T03:22:36;99543.97;;;10.50;100.00
10115;BME280;5097;43.260;27.812;2023-04-19T03:25:20;99546.81;;;10.47;100.00
10115;BME280;5097;43.260;27.812;2023-04-19T03:28:13;99523.97;;;10.31;100.00
10115;BME280;5097;43.260;27.812;2023-04-19T03:31:20;99539.06;;;10.58;100.00
10115;BME280;5097;43.260;27.812;2023-04-19T03:34:07;99538.88;;;10.76;100.00
10115;BME280;5097;43.260;27.812;2023-04-19T03:36:57;99538.00;;;10.75;100.00
10115;BME280;5097;43.260;27.812;2023-04-19T03:39:41;99537.88;;;10.91;100.00
10115;BME280;5097;43.260;27.812;2023-04-19T03:42:29;99538.28;;;10.85;100.00
10115;BME280;5097;43.260;27.812;2023-04-19T03:45:20;99537.31;;;10.86;100.00
10115;BME280;5097;43.260;27.812;2023-04-19T03:48:04;99535.03;;;10.94;100.00
10115;BME280;5097;43.260;27.812;2023-04-19T03:50:49;99542.13;;;10.94;100.00
10115;BME280;5097;43.260;27.812;2023-04-19T03:53:36;99534.75;;;10.57;100.00
10115;BME280;5097;43.260;27.812;2023-04-19T03:56:19;99541.69;;;10.72;100.00
10115;BME280;5097;43.260;27.812;2023-04-19T03:59:05;99545.69;;;10.51;100.00
10115;BME280;5097;43.260;27.812;2023-04-19T04:01:51;99546.47;;;10.53;100.00
10115;BME280;5097;43.260;27.812;2023-04-19T04:04:36;99542.09;;;10.66;100.00
10115;BME280;5097;43.260;27.812;2023-04-19T04:07:21;99540.31;;;10.38;100.00
10115;BME280;5097;43.260;27.812;2023-04-19T04:10:09;99545.22;;;10.44;100.00
10115;BME280;5097;43.260;27.812;2023-04-19T04:12:57;99544.44;;;10.28;100.00
10115;BME280;5097;43.260;27.812;2023-04-19T04:15:52;99553.00;;;10.31;100.00
10115;BME280;5097;43.260;27.812;2023-04-19T04:18:36;99557.19;;;10.50;100.00
10115;BME280;5097;43.260;27.812;2023-04-19T04:21:24;99554.53;;;10.21;100.00
10115;BME280;5097;43.260;27.812;2023-04-19T04:24:11;99556.81;;;10.42;100.00
10115;BME280;5097;43.260;27.812;2023-04-19T04:27:26;99551.22;;;10.32;100.00
10115;BME280;5097;43.260;27.812;2023-04-19T04:30:11;99549.53;;;10.31;100.00
10115;BME280;5097;43.260;27.812;2023-04-19T04:32:55;99548.75;;;10.29;100.00
10115;BME280;5097;43.260;27.812;2023-04-19T04:35:41;99543.72;;;10.40;100.00
10115;BME280;5097;43.260;27.812;2023-04-19T04:38:31;99546.25;;;10.42;100.00
10115;BME280;5097;43.260;27.812;2023-04-19T04:41:15;99549.19;;;10.37;100.00
10115;BME280;5097;43.260;27.812;2023-04-19T04:44:01;99542.28;;;10.20;100.00
10115;BME280;5097;43.260;27.812;2023-04-19T04:46:55;99526.06;;;10.26;100.00
10115;BME280;5097;43.260;27.812;2023-04-19T04:49:42;99551.63;;;10.40;100.00
10115;BME280;5097;43.260;27.812;2023-04-19T04:52:26;99552.94;;;10.33;100.00
10115;BME280;5097;43.260;27.812;2023-04-19T04:55:18;99554.69;;;10.18;100.00
10115;BME280;5097;43.260;27.812;2023-04-19T04:58:02;99563.94;;;10.11;100.00
10115;BME280;5097;43.260;27.812;2023-04-19T05:01:20;99567.16;;;10.16;100.00
10115;BME280;5097;43.260;27.812;2023-04-19T05:04:06;99566.28;;;10.15;100.00
10115;BME280;5097;43.260;27.812;2023-04-19T05:06:51;99573.09;;;10.19;100.00
10115;BME280;5097;43.260;27.812;2023-04-19T05:09:39;99559.16;;;9.72;100.00
10115;BME280;5097;43.260;27.812;2023-04-19T05:12:24;99569.19;;;9.96;100.00
10115;BME280;5097;43.260;27.812;2023-04-19T05:15:09;99534.84;;;9.67;100.00
10115;BME280;5097;43.260;27.812;2023-04-19T05:17:59;99580.03;;;9.92;100.00
10115;BME280;5097;43.260;27.812;2023-04-19T05:20:43;99571.34;;;9.89;100.00
10115;BME280;5097;43.260;27.812;2023-04-19T05:23:36;99571.09;;;9.94;100.00
10115;BME280;5097;43.260;27.812;2023-04-19T05:26:20;99571.19;;;9.93;100.00
10115;BME280;5097;43.260;27.812;2023-04-19T05:29:05;99571.94;;;10.09;100.00
10115;BME280;5097;43.260;27.812;2023-04-19T05:32:01;99573.34;;;10.00;100.00
10115;BME280;5097;43.260;27.812;2023-04-19T05:34:56;99568.84;;;10.17;100.00
10115;BME280;5097;43.260;27.812;2023-04-19T05:37:40;99572.78;;;10.10;100.00
10115;BME280;5097;43.260;27.812;2023-04-19T05:40:24;99581.03;;;10.19;100.00
10115;BME280;5097;43.260;27.812;2023-04-19T05:43:08;99572.78;;;10.10;100.00
10115;BME280;5097;43.260;27.812;2023-04-19T05:45:52;99579.78;;;10.25;100.00
10115;BME280;5097;43.260;27.812;2023-04-19T05:48:36;99575.25;;;10.13;100.00
10115;BME280;5097;43.260;27.812;2023-04-19T05:51:40;99552.88;;;9.89;100.00
10115;BME280;5097;43.260;27.812;2023-04-19T05:54:44;99579.22;;;10.20;100.00
10115;BME280;5097;43.260;27.812;2023-04-19T05:57:28;99579.78;;;10.11;100.00
10115;BME280;5097;43.260;27.812;2023-04-19T06:00:14;99576.75;;;10.31;100.00
10115;BME280;5097;43.260;27.812;2023-04-19T06:03:07;99569.34;;;10.23;100.00
10115;BME280;5097;43.260;27.812;2023-04-19T06:05:51;99574.47;;;9.96;100.00
10115;BME280;5097;43.260;27.812;2023-04-19T06:08:36;99569.78;;;10.16;100.00
10115;BME280;5097;43.260;27.812;2023-04-19T06:11:20;99578.25;;;10.06;100.00
10115;BME280;5097;43.260;27.812;2023-04-19T06:14:21;99579.59;;;10.14;100.00
10115;BME280;5097;43.260;27.812;2023-04-19T06:17:05;99543.25;;;9.88;100.00
10115;BME280;5097;43.260;27.812;2023-04-19T06:19:49;99577.31;;;10.22;100.00
10115;BME280;5097;43.260;27.812;2023-04-19T06:22:34;99584.72;;;10.46;100.00
10115;BME280;5097;43.260;27.812;2023-04-19T06:25:19;99584.34;;;10.37;100.00
10115;BME280;5097;43.260;27.812;2023-04-19T06:28:04;99585.47;;;10.33;100.00
10115;BME280;5097;43.260;27.812;2023-04-19T06:30:48;99578.97;;;10.68;100.00
10115;BME280;5097;43.260;27.812;2023-04-19T06:33:32;99586.06;;;10.53;100.00
10115;BME280;5097;43.260;27.812;2023-04-19T06:36:16;99592.25;;;10.95;100.00
10115;BME280;5097;43.260;27.812;2023-04-19T06:38:59;99597.53;;;10.81;100.00
10115;BME280;5097;43.260;27.812;2023-04-19T06:41:45;99594.53;;;10.58;100.00
10115;BME280;5097;43.260;27.812;2023-04-19T06:44:31;99601.16;;;10.51;100.00
10115;BME280;5097;43.260;27.812;2023-04-19T06:47:15;99603.41;;;10.71;100.00
10115;BME280;5097;43.260;27.812;2023-04-19T06:49:59;99601.84;;;11.11;100.00
10115;BME280;5097;43.260;27.812;2023-04-19T06:52:44;99606.72;;;11.17;100.00
10115;BME280;5097;43.260;27.812;2023-04-19T06:55:28;99595.56;;;10.99;100.00
10115;BME280;5097;43.260;27.812;2023-04-19T06:58:13;99604.22;;;11.43;100.00
10115;BME280;5097;43.260;27.812;2023-04-19T07:00:58;99600.44;;;11.87;100.00
10115;BME280;5097;43.260;27.812;2023-04-19T07:03:44;99611.19;;;11.84;100.00
10115;BME280;5097;43.260;27.812;2023-04-19T07:06:29;99612.56;;;12.17;100.00
10115;BME280;5097;43.260;27.812;2023-04-19T07:09:13;99609.53;;;11.83;100.00
10115;BME280;5097;43.260;27.812;2023-04-19T07:11:57;99602.19;;;12.27;100.00
10115;BME280;5097;43.260;27.812;2023-04-19T07:14:42;99625.72;;;12.57;100.00
10115;BME280;5097;43.260;27.812;2023-04-19T07:17:26;99626.66;;;12.56;98.72
10115;BME280;5097;43.260;27.812;2023-04-19T07:20:10;99611.06;;;12.00;97.38
10115;BME280;5097;43.260;27.812;2023-04-19T07:22:54;99623.50;;;12.25;100.00
10115;BME280;5097;43.260;27.812;2023-04-19T07:25:38;99629.31;;;12.30;100.00
10115;BME280;5097;43.260;27.812;2023-04-19T07:28:22;99619.47;;;11.92;98.79
10115;BME280;5097;43.260;27.812;2023-04-19T07:31:07;99633.94;;;12.01;99.04
10115;BME280;5097;43.260;27.812;2023-04-19T07:33:51;99638.84;;;12.46;100.00
10115;BME280;5097;43.260;27.812;2023-04-19T07:36:35;99637.69;;;12.37;98.44
10115;BME280;5097;43.260;27.812;2023-04-19T07:39:20;99642.66;;;12.93;100.00
10115;BME280;5097;43.260;27.812;2023-04-19T07:42:04;99645.84;;;12.98;95.19
10115;BME280;5097;43.260;27.812;2023-04-19T07:44:48;99607.13;;;12.83;94.45
10115;BME280;5097;43.260;27.812;2023-04-19T07:47:34;99626.34;;;12.22;95.13
10115;BME280;5097;43.260;27.812;2023-04-19T07:50:18;99617.88;;;12.43;95.05
10115;BME280;5097;43.260;27.812;2023-04-19T07:53:04;99615.78;;;11.54;96.76
10115;BME280;5097;43.260;27.812;2023-04-19T07:55:48;99631.28;;;12.91;96.51
10115;BME280;5097;43.260;27.812;2023-04-19T07:58:32;99629.22;;;13.20;93.98
10115;BME280;5097;43.260;27.812;2023-04-19T08:01:16;99661.75;;;12.72;91.28
10115;BME280;5097;43.260;27.812;2023-04-19T08:04:02;99663.69;;;13.33;92.96
10115;BME280;5097;43.260;27.812;2023-04-19T08:06:46;99665.06;;;13.39;92.50
10115;BME280;5097;43.260;27.812;2023-04-19T08:09:32;99647.66;;;13.22;91.40
10115;BME280;5097;43.260;27.812;2023-04-19T08:12:16;99665.09;;;13.13;92.16
10115;BME280;5097;43.260;27.812;2023-04-19T08:15:14;99670.75;;;12.96;92.37
10115;BME280;5097;43.260;27.812;2023-04-19T08:18:18;99644.59;;;13.15;92.69
10115;BME280;5097;43.260;27.812;2023-04-19T08:21:04;99659.31;;;13.32;92.48
10115;BME280;5097;43.260;27.812;2023-04-19T08:23:48;99667.47;;;12.92;86.49
10115;BME280;5097;43.260;27.812;2023-04-19T08:26:35;99670.03;;;12.42;92.86
10115;BME280;5097;43.260;27.812;2023-04-19T08:29:20;99671.91;;;12.40;96.30
10115;BME280;5097;43.260;27.812;2023-04-19T08:32:05;99669.88;;;12.18;94.39
10115;BME280;5097;43.260;27.812;2023-04-19T08:34:48;99675.69;;;11.83;95.34
10115;BME280;5097;43.260;27.812;2023-04-19T08:37:34;99657.84;;;11.45;97.93
10115;BME280;5097;43.260;27.812;2023-04-19T08:40:18;99676.78;;;11.66;98.14
10115;BME280;5097;43.260;27.812;2023-04-19T08:43:04;99666.47;;;12.16;100.00
10115;BME280;5097;43.260;27.812;2023-04-19T08:45:49;99634.78;;;12.01;100.00
10115;BME280;5097;43.260;27.812;2023-04-19T08:48:34;99682.53;;;12.53;97.98
10115;BME280;5097;43.260;27.812;2023-04-19T08:51:19;99671.03;;;13.17;95.87
10115;BME280;5097;43.260;27.812;2023-04-19T08:54:05;99669.03;;;13.07;96.42
10115;BME280;5097;43.260;27.812;2023-04-19T08:56:51;99663.31;;;13.51;91.54
10115;BME280;5097;43.260;27.812;2023-04-19T08:59:35;99628.69;;;12.52;94.15
10115;BME280;5097;43.260;27.812;2023-04-19T09:02:19;99679.34;;;12.73;94.45
10115;BME280;5097;43.260;27.812;2023-04-19T09:05:04;99675.94;;;12.46;95.88
10115;BME280;5097;43.260;27.812;2023-04-19T09:07:49;99528.59;;;11.53;97.31
10115;BME280;5097;43.260;27.812;2023-04-19T09:10:34;99653.84;;;12.06;95.92
10115;BME280;5097;43.260;27.812;2023-04-19T09:13:18;99662.19;;;12.66;97.67
10115;BME280;5097;43.260;27.812;2023-04-19T09:16:02;99667.47;;;12.40;96.04
10115;BME280;5097;43.260;27.812;2023-04-19T09:18:52;99658.75;;;12.26;97.58
10115;BME280;5097;43.260;27.812;2023-04-19T09:22:11;99672.78;;;12.66;100.00
10115;BME280;5097;43.260;27.812;2023-04-19T09:24:57;99662.94;;;12.02;98.19
10115;BME280;5097;43.260;27.812;2023-04-19T09:27:47;99671.47;;;12.33;100.00
10115;BME280;5097;43.260;27.812;2023-04-19T09:30:31;99679.59;;;12.04;100.00
10115;BME280;5097;43.260;27.812;2023-04-19T09:33:32;99671.19;;;11.70;96.63
10115;BME280;5097;43.260;27.812;2023-04-19T09:36:26;99682.63;;;11.98;100.00
10115;BME280;5097;43.260;27.812;2023-04-19T09:39:10;99675.78;;;11.81;98.94
10115;BME280;5097;43.260;27.812;2023-04-19T09:41:56;99653.09;;;11.77;100.00
10115;BME280;5097;43.260;27.812;2023-04-19T09:44:54;99632.06;;;11.48;99.92
10115;BME280;5097;43.260;27.812;2023-04-19T09:48:03;99668.34;;;11.73;100.00
10115;BME280;5097;43.260;27.812;2023-04-19T09:50:51;99678.97;;;11.86;97.08
10115;BME280;5097;43.260;27.812;2023-04-19T09:53:42;99654.06;;;11.49;98.66
10115;BME280;5097;43.260;27.812;2023-04-19T09:56:27;99681.22;;;12.46;100.00
10115;BME280;5097;43.260;27.812;2023-04-19T09:59:11;99645.63;;;12.24;94.65
10115;BME280;5097;43.260;27.812;2023-04-19T10:02:09;99668.19;;;11.62;100.00
10115;BME280;5097;43.260;27.812;2023-04-19T10:04:56;99654.41;;;11.30;100.00
10115;BME280;5097;43.260;27.812;2023-04-19T10:08:01;99677.75;;;11.09;100.00
10115;BME280;5097;43.260;27.812;2023-04-19T10:10:45;99636.78;;;11.70;100.00
10115;BME280;5097;43.260;27.812;2023-04-19T10:13:36;99665.22;;;11.94;100.00
10115;BME280;5097;43.260;27.812;2023-04-19T10:16:20;99672.06;;;11.98;100.00
10115;BME280;5097;43.260;27.812;2023-04-19T10:19:08;99665.50;;;12.04;99.19
10115;BME280;5097;43.260;27.812;2023-04-19T10:21:53;99658.97;;;12.10;100.00
10115;BME280;5097;43.260;27.812;2023-04-19T10:24:37;99665.78;;;12.39;97.52
10115;BME280;5097;43.260;27.812;2023-04-19T10:27:24;99653.28;;;12.54;99.18
10115;BME280;5097;43.260;27.812;2023-04-19T10:30:16;99655.59;;;12.72;93.62
10115;BME280;5097;43.260;27.812;2023-04-19T10:33:00;99674.25;;;12.96;94.27
10115;BME280;5097;43.260;27.812;2023-04-19T10:35:47;99658.28;;;13.22;98.77
10115;BME280;5097;43.260;27.812;2023-04-19T10:38:35;99667.88;;;13.12;97.97
10115;BME280;5097;43.260;27.812;2023-04-19T10:41:20;99669.31;;;13.41;92.48
10115;BME280;5097;43.260;27.812;2023-04-19T10:44:08;99669.16;;;12.93;90.95
10115;BME280;5097;43.260;27.812;2023-04-19T10:46:52;99672.25;;;12.61;93.78
10115;BME280;5097;43.260;27.812;2023-04-19T10:49:43;99672.78;;;12.53;91.22
10115;BME280;5097;43.260;27.812;2023-04-19T10:52:29;99671.69;;;12.30;95.41
10115;BME280;5097;43.260;27.812;2023-04-19T10:55:14;99683.78;;;12.34;98.24
10115;BME280;5097;43.260;27.812;2023-04-19T10:58:03;99678.16;;;12.26;96.82
10115;BME280;5097;43.260;27.812;2023-04-19T11:00:47;99681.75;;;11.70;98.01
10115;BME280;5097;43.260;27.812;2023-04-19T11:03:50;99609.69;;;11.12;97.78
10115;BME280;5097;43.260;27.812;2023-04-19T11:06:35;99677.16;;;11.60;96.02
10115;BME280;5097;43.260;27.812;2023-04-19T11:09:22;99676.75;;;11.38;98.08
10115;BME280;5097;43.260;27.812;2023-04-19T11:12:09;99687.94;;;11.15;100.00
10115;BME280;5097;43.260;27.812;2023-04-19T11:14:57;99689.38;;;10.77;100.00
10115;BME280;5097;43.260;27.812;2023-04-19T11:17:41;99693.59;;;10.94;100.00
10115;BME280;5097;43.260;27.812;2023-04-19T11:20:25;99680.31;;;10.81;100.00
10115;BME280;5097;43.260;27.812;2023-04-19T11:23:14;99694.94;;;11.01;99.54
10115;BME280;5097;43.260;27.812;2023-04-19T11:26:00;99678.44;;;10.69;99.11
10115;BME280;5097;43.260;27.812;2023-04-19T11:28:44;99684.22;;;11.32;100.00
10115;BME280;5097;43.260;27.812;2023-04-19T11:31:31;99683.91;;;11.09;99.77
10115;BME280;5097;43.260;27.812;2023-04-19T11:34:15;99676.72;;;11.11;100.00
10115;BME280;5097;43.260;27.812;2023-04-19T11:37:01;99681.72;;;11.01;99.86
10115;BME280;5097;43.260;27.812;2023-04-19T11:39:45;99644.94;;;10.69;100.00
10115;BME280;5097;43.260;27.812;2023-04-19T11:42:31;99662.19;;;10.89;100.00
10115;BME280;5097;43.260;27.812;2023-04-19T11:45:24;99676.22;;;11.19;100.00
10115;BME280;5097;43.260;27.812;2023-04-19T11:48:13;99664.00;;;10.75;100.00
10115;BME280;5097;43.260;27.812;2023-04-19T11:50:58;99665.69;;;10.76;100.00
10115;BME280;5097;43.260;27.812;2023-04-19T11:53:42;99669.25;;;11.03;100.00
10115;BME280;5097;43.260;27.812;2023-04-19T11:56:26;99676.47;;;11.43;100.00
10115;BME280;5097;43.260;27.812;2023-04-19T11:59:12;99668.94;;;11.91;100.00
10115;BME280;5097;43.260;27.812;2023-04-19T12:02:03;99661.94;;;12.31;95.78
10115;BME280;5097;43.260;27.812;2023-04-19T12:04:47;99666.91;;;12.10;96.23
10115;BME280;5097;43.260;27.812;2023-04-19T12:07:32;99667.81;;;11.96;95.93
10115;BME280;5097;43.260;27.812;2023-04-19T12:10:16;99669.41;;;12.51;94.32
10115;BME280;5097;43.260;27.812;2023-04-19T12:13:15;99649.88;;;12.39;94.39
10115;BME280;5097;43.260;27.812;2023-04-19T12:16:01;99662.38;;;12.37;92.28
10115;BME280;5097;43.260;27.812;2023-04-19T12:18:47;99668.84;;;12.33;92.45
10115;BME280;5097;43.260;27.812;2023-04-19T12:21:32;99665.78;;;12.39;93.58
10115;BME280;5097;43.260;27.812;2023-04-19T12:24:16;99661.88;;;12.58;92.55
10115;BME280;5097;43.260;27.812;2023-04-19T12:27:00;99656.34;;;12.61;93.27
10115;BME280;5097;43.260;27.812;2023-04-19T12:29:45;99644.16;;;12.46;92.14
10115;BME280;5097;43.260;27.812;2023-04-19T12:32:30;99656.88;;;12.40;93.66
10115;BME280;5097;43.260;27.812;2023-04-19T12:35:14;99647.34;;;12.77;89.68
10115;BME280;5097;43.260;27.812;2023-04-19T12:37:59;99657.09;;;12.63;93.48
10115;BME280;5097;43.260;27.812;2023-04-19T12:40:44;99639.59;;;12.48;91.91
10115;BME280;5097;43.260;27.812;2023-04-19T12:43:27;99640.38;;;12.50;92.76
10115;BME280;5097;43.260;27.812;2023-04-19T12:46:13;99629.63;;;12.77;93.92
10115;BME280;5097;43.260;27.812;2023-04-19T12:48:58;99639.47;;;12.88;89.88
10115;BME280;5097;43.260;27.812;2023-04-19T12:51:42;99615.13;;;12.57;88.55
10115;BME280;5097;43.260;27.812;2023-04-19T12:54:28;99632.34;;;12.88;88.33
10115;BME280;5097;43.260;27.812;2023-04-19T12:57:12;99614.28;;;13.19;86.89
10115;BME280;5097;43.260;27.812;2023-04-19T12:59:56;99623.47;;;13.39;89.38
10115;BME280;5097;43.260;27.812;2023-04-19T13:02:40;99621.81;;;13.13;83.04
10115;BME280;5097;43.260;27.812;2023-04-19T13:05:26;99605.44;;;12.82;86.06
10115;BME280;5097;43.260;27.812;2023-04-19T13:08:10;99632.56;;;13.35;85.92
10115;BME280;5097;43.260;27.812;2023-04-19T13:10:54;99614.97;;;13.83;84.75
10115;BME280;5097;43.260;27.812;2023-04-19T13:13:38;99621.91;;;13.97;82.54
10115;BME280;5097;43.260;27.812;2023-04-19T13:16:22;99620.94;;;14.33;80.97
10115;BME280;5097;43.260;27.812;2023-04-19T13:19:06;99619.44;;;14.29;80.90
10115;BME280;5097;43.260;27.812;2023-04-19T13:21:51;99621.09;;;14.07;79.00
10115;BME280;5097;43.260;27.812;2023-04-19T13:24:35;99616.81;;;13.94;80.92
10115;BME280;5097;43.260;27.812;2023-04-19T13:27:19;99619.22;;;14.44;82.23
10115;BME280;5097;43.260;27.812;2023-04-19T13:30:04;99625.16;;;14.47;78.48
10115;BME280;5097;43.260;27.812;2023-04-19T13:32:49;99633.91;;;14.25;75.15
10115;BME280;5097;43.260;27.812;2023-04-19T13:35:33;99614.56;;;14.00;76.95
10115;BME280;5097;43.260;27.812;2023-04-19T13:38:19;99600.38;;;14.35;76.69
10115;BME280;5097;43.260;27.812;2023-04-19T13:41:03;99616.34;;;14.58;76.37
10115;BME280;5097;43.260;27.812;2023-04-19T13:43:47;99584.97;;;13.94;75.44
10115;BME280;5097;43.260;27.812;2023-04-19T13:46:31;99580.91;;;13.65;77.07
10115;BME280;5097;43.260;27.812;2023-04-19T13:49:15;99614.88;;;13.84;78.15
10115;BME280;5097;43.260;27.812;2023-04-19T13:51:59;99613.97;;;14.08;77.09
10115;BME280;5097;43.260;27.812;2023-04-19T13:54:45;99613.44;;;14.50;77.70
10115;BME280;5097;43.260;27.812;2023-04-19T13:57:29;99619.28;;;14.66;76.28
10115;BME280;5097;43.260;27.812;2023-04-19T14:00:13;99615.91;;;14.87;75.43
10115;BME280;5097;43.260;27.812;2023-04-19T14:02:58;99575.22;;;14.17;77.92
10115;BME280;5097;43.260;27.812;2023-04-19T14:05:42;99615.66;;;14.67;74.69
10115;BME280;5097;43.260;27.812;2023-04-19T14:08:26;99597.09;;;14.32;75.48
10115;BME280;5097;43.260;27.812;2023-04-19T14:11:15;99608.53;;;14.10;77.65
10115;BME280;5097;43.260;27.812;2023-04-19T14:14:00;99599.38;;;14.25;76.81
10115;BME280;5097;43.260;27.812;2023-04-19T14:16:44;99608.19;;;14.72;77.44
10115;BME280;5097;43.260;27.812;2023-04-19T14:19:28;99543.41;;;13.81;78.72
10115;BME280;5097;43.260;27.812;2023-04-19T14:22:12;99596.75;;;14.36;80.42
10115;BME280;5097;43.260;27.812;2023-04-19T14:24:56;99604.63;;;14.38;76.51
10115;BME280;5097;43.260;27.812;2023-04-19T14:27:42;99609.88;;;14.15;77.29
10115;BME280;5097;43.260;27.812;2023-04-19T14:30:26;99601.09;;;14.15;77.21
10115;BME280;5097;43.260;27.812;2023-04-19T14:33:12;99611.94;;;13.76;77.19
10115;BME280;5097;43.260;27.812;2023-04-19T14:35:56;99602.28;;;14.11;77.23